International Virtual Aviation Organisation

Russian Federation and Kazakhstan MCD

 

Карточка аэропорта UADD

Внимание!
Информация на этой странице в стадии наполнения.
Если вы не увидели какой-то информации, или заметили неточность - пожалуйста сообщите нам!
Спасибо!
Команда RU-STAFF
Название аэропортаТараз
Название аэропорта (англ.)Taraz
Превышение2188 ft. (666.9 m.)
Координаты42°51.702', 71°17.784'
Высота перехода5800
Эшелон переходаFL80
Коды ответчика3476-3477, 3524-3527
Зона ОрВДШымкент РПИ (UAII)
Данные METARUADD 131100Z 23007MPS 9999 BKN046CB OVC100 06/M01 Q1013 R13/0///65 NOSIG RMK QFE703/0938
Проноз погоды (TAF)NODATA
NOTAMshow/hide NOTAM
AWOS   TABLE

Информация о ВПП

ВПП Длина ВПП (м.) Покрытие Курс ВПП Частота ILS
133501Асфальтобетон137109.7
313501Асфальтобетон317 

Диспетчерские позиции




Спутниковое изображение